sensor_id;sensor_type;location;lat;lon;timestamp;temperature;humidity
48648;DHT22;34437;-33.956;151.076;2022-12-24T00:01:14;27.30;57.40
48648;DHT22;34437;-33.956;151.076;2022-12-24T00:03:37;27.30;57.40
48648;DHT22;34437;-33.956;151.076;2022-12-24T00:06:04;27.30;57.60
48648;DHT22;34437;-33.956;151.076;2022-12-24T00:08:27;27.40;57.80
48648;DHT22;34437;-33.956;151.076;2022-12-24T00:10:50;27.40;58.00
48648;DHT22;34437;-33.956;151.076;2022-12-24T00:13:13;27.40;57.70
48648;DHT22;34437;-33.956;151.076;2022-12-24T00:15:35;27.50;57.50
48648;DHT22;34437;-33.956;151.076;2022-12-24T00:17:58;27.50;57.30
48648;DHT22;34437;-33.956;151.076;2022-12-24T00:20:20;27.50;57.20
48648;DHT22;34437;-33.956;151.076;2022-12-24T00:22:43;27.60;57.00
48648;DHT22;34437;-33.956;151.076;2022-12-24T00:25:05;27.60;56.90
48648;DHT22;34437;-33.956;151.076;2022-12-24T00:27:28;27.70;56.90
48648;DHT22;34437;-33.956;151.076;2022-12-24T00:29:50;27.70;56.80
48648;DHT22;34437;-33.956;151.076;2022-12-24T00:32:13;27.80;56.70
48648;DHT22;34437;-33.956;151.076;2022-12-24T00:34:38;27.80;56.60
48648;DHT22;34437;-33.956;151.076;2022-12-24T00:37:01;27.80;56.40
48648;DHT22;34437;-33.956;151.076;2022-12-24T00:39:24;27.80;56.20
48648;DHT22;34437;-33.956;151.076;2022-12-24T00:41:46;27.80;56.30
48648;DHT22;34437;-33.956;151.076;2022-12-24T00:44:09;27.90;56.20
48648;DHT22;34437;-33.956;151.076;2022-12-24T00:46:33;27.90;56.10
48648;DHT22;34437;-33.956;151.076;2022-12-24T00:48:56;27.90;56.00
48648;DHT22;34437;-33.956;151.076;2022-12-24T00:51:19;27.90;55.90
48648;DHT22;34437;-33.956;151.076;2022-12-24T00:53:41;27.90;55.80
48648;DHT22;34437;-33.956;151.076;2022-12-24T00:56:04;27.90;55.90
48648;DHT22;34437;-33.956;151.076;2022-12-24T00:58:26;28.00;55.80
48648;DHT22;34437;-33.956;151.076;2022-12-24T01:00:49;28.00;55.70
48648;DHT22;34437;-33.956;151.076;2022-12-24T01:03:11;28.00;55.70
48648;DHT22;34437;-33.956;151.076;2022-12-24T01:05:33;28.00;55.70
48648;DHT22;34437;-33.956;151.076;2022-12-24T01:07:56;28.10;55.70
48648;DHT22;34437;-33.956;151.076;2022-12-24T01:10:19;28.10;55.70
48648;DHT22;34437;-33.956;151.076;2022-12-24T01:12:42;28.10;55.70
48648;DHT22;34437;-33.956;151.076;2022-12-24T01:15:05;28.10;55.60
48648;DHT22;34437;-33.956;151.076;2022-12-24T01:17:29;28.10;55.60
48648;DHT22;34437;-33.956;151.076;2022-12-24T01:19:52;28.20;55.50
48648;DHT22;34437;-33.956;151.076;2022-12-24T01:22:14;28.20;55.50
48648;DHT22;34437;-33.956;151.076;2022-12-24T01:24:38;28.20;55.40
48648;DHT22;34437;-33.956;151.076;2022-12-24T01:27:01;28.30;55.40
48648;DHT22;34437;-33.956;151.076;2022-12-24T01:29:23;28.30;56.10
48648;DHT22;34437;-33.956;151.076;2022-12-24T01:31:46;28.30;55.30
48648;DHT22;34437;-33.956;151.076;2022-12-24T01:34:08;28.30;55.40
48648;DHT22;34437;-33.956;151.076;2022-12-24T01:36:31;28.30;55.40
48648;DHT22;34437;-33.956;151.076;2022-12-24T01:38:53;28.40;55.50
48648;DHT22;34437;-33.956;151.076;2022-12-24T01:41:23;28.40;55.40
48648;DHT22;34437;-33.956;151.076;2022-12-24T01:44:25;28.40;55.40
48648;DHT22;34437;-33.956;151.076;2022-12-24T01:47:37;28.50;55.40
48648;DHT22;34437;-33.956;151.076;2022-12-24T01:49:34;28.50;55.30
48648;DHT22;34437;-33.956;151.076;2022-12-24T01:52:02;28.60;55.30
48648;DHT22;34437;-33.956;151.076;2022-12-24T01:54:40;28.60;55.40
48648;DHT22;34437;-33.956;151.076;2022-12-24T01:57:20;28.60;55.20
48648;DHT22;34437;-33.956;151.076;2022-12-24T01:59:46;28.70;55.20
48648;DHT22;34437;-33.956;151.076;2022-12-24T02:02:11;28.70;55.90
48648;DHT22;34437;-33.956;151.076;2022-12-24T02:07:22;28.80;55.40
48648;DHT22;34437;-33.956;151.076;2022-12-24T02:09:45;28.80;55.30
48648;DHT22;34437;-33.956;151.076;2022-12-24T02:12:08;28.90;55.40
48648;DHT22;34437;-33.956;151.076;2022-12-24T02:14:31;28.90;55.40
48648;DHT22;34437;-33.956;151.076;2022-12-24T02:22:16;28.90;55.40
48648;DHT22;34437;-33.956;151.076;2022-12-24T02:33:11;29.20;55.60
48648;DHT22;34437;-33.956;151.076;2022-12-24T02:35:51;29.20;55.50
48648;DHT22;34437;-33.956;151.076;2022-12-24T02:38:29;29.30;55.50
48648;DHT22;34437;-33.956;151.076;2022-12-24T02:41:07;29.30;55.40
48648;DHT22;34437;-33.956;151.076;2022-12-24T02:43:37;29.40;55.30
48648;DHT22;34437;-33.956;151.076;2022-12-24T02:46:04;29.40;55.30
48648;DHT22;34437;-33.956;151.076;2022-12-24T02:48:29;29.40;55.20
48648;DHT22;34437;-33.956;151.076;2022-12-24T02:51:06;29.40;55.20
48648;DHT22;34437;-33.956;151.076;2022-12-24T02:53:29;29.50;55.90
48648;DHT22;34437;-33.956;151.076;2022-12-24T03:03:58;29.60;55.00
48648;DHT22;34437;-33.956;151.076;2022-12-24T03:11:50;29.70;54.90
48648;DHT22;34437;-33.956;151.076;2022-12-24T03:14:15;29.70;54.80
48648;DHT22;34437;-33.956;151.076;2022-12-24T03:16:38;29.80;54.90
48648;DHT22;34437;-33.956;151.076;2022-12-24T03:19:00;29.80;54.70
48648;DHT22;34437;-33.956;151.076;2022-12-24T03:21:33;29.80;54.90
48648;DHT22;34437;-33.956;151.076;2022-12-24T03:23:56;29.80;54.60
48648;DHT22;34437;-33.956;151.076;2022-12-24T03:26:19;29.80;54.50
48648;DHT22;34437;-33.956;151.076;2022-12-24T03:28:43;29.90;54.50
48648;DHT22;34437;-33.956;151.076;2022-12-24T03:31:07;29.90;54.50
48648;DHT22;34437;-33.956;151.076;2022-12-24T03:33:30;29.90;54.30
48648;DHT22;34437;-33.956;151.076;2022-12-24T03:35:53;29.90;54.30
48648;DHT22;34437;-33.956;151.076;2022-12-24T03:38:15;30.00;54.30
48648;DHT22;34437;-33.956;151.076;2022-12-24T03:40:37;30.00;54.10
48648;DHT22;34437;-33.956;151.076;2022-12-24T03:43:00;30.00;54.00
48648;DHT22;34437;-33.956;151.076;2022-12-24T03:45:22;30.10;54.00
48648;DHT22;34437;-33.956;151.076;2022-12-24T03:47:45;30.10;53.80
48648;DHT22;34437;-33.956;151.076;2022-12-24T03:50:08;30.10;53.80
48648;DHT22;34437;-33.956;151.076;2022-12-24T03:52:30;30.10;53.70
48648;DHT22;34437;-33.956;151.076;2022-12-24T03:54:52;30.20;53.70
48648;DHT22;34437;-33.956;151.076;2022-12-24T03:57:15;30.20;53.60
48648;DHT22;34437;-33.956;151.076;2022-12-24T03:59:37;30.20;53.60
48648;DHT22;34437;-33.956;151.076;2022-12-24T04:02:00;30.20;53.30
48648;DHT22;34437;-33.956;151.076;2022-12-24T04:04:22;30.30;53.40
48648;DHT22;34437;-33.956;151.076;2022-12-24T04:06:45;30.30;53.40
48648;DHT22;34437;-33.956;151.076;2022-12-24T04:09:07;30.30;53.30
48648;DHT22;34437;-33.956;151.076;2022-12-24T04:11:30;30.30;53.10
48648;DHT22;34437;-33.956;151.076;2022-12-24T04:13:52;30.40;53.20
48648;DHT22;34437;-33.956;151.076;2022-12-24T04:16:15;30.40;53.20
48648;DHT22;34437;-33.956;151.076;2022-12-24T04:18:39;30.50;53.00
48648;DHT22;34437;-33.956;151.076;2022-12-24T04:21:01;30.50;53.00
48648;DHT22;34437;-33.956;151.076;2022-12-24T04:23:24;30.60;52.90
48648;DHT22;34437;-33.956;151.076;2022-12-24T04:25:47;30.60;52.90
48648;DHT22;34437;-33.956;151.076;2022-12-24T04:28:10;30.70;52.80
48648;DHT22;34437;-33.956;151.076;2022-12-24T04:30:32;30.70;52.90
48648;DHT22;34437;-33.956;151.076;2022-12-24T04:32:54;30.80;52.90
48648;DHT22;34437;-33.956;151.076;2022-12-24T04:35:17;30.80;52.70
48648;DHT22;34437;-33.956;151.076;2022-12-24T04:37:39;30.90;52.70
48648;DHT22;34437;-33.956;151.076;2022-12-24T04:40:02;31.00;52.60
48648;DHT22;34437;-33.956;151.076;2022-12-24T04:42:24;31.00;52.50
48648;DHT22;34437;-33.956;151.076;2022-12-24T04:44:47;31.10;52.50
48648;DHT22;34437;-33.956;151.076;2022-12-24T04:47:09;31.10;52.30
48648;DHT22;34437;-33.956;151.076;2022-12-24T04:49:31;31.20;52.30
48648;DHT22;34437;-33.956;151.076;2022-12-24T04:51:54;31.30;52.30
48648;DHT22;34437;-33.956;151.076;2022-12-24T04:54:16;31.40;52.20
48648;DHT22;34437;-33.956;151.076;2022-12-24T04:56:39;31.40;52.00
48648;DHT22;34437;-33.956;151.076;2022-12-24T04:59:01;31.50;51.90
48648;DHT22;34437;-33.956;151.076;2022-12-24T05:01:26;31.50;51.70
48648;DHT22;34437;-33.956;151.076;2022-12-24T05:03:50;31.60;51.70
48648;DHT22;34437;-33.956;151.076;2022-12-24T05:06:12;31.60;51.60
48648;DHT22;34437;-33.956;151.076;2022-12-24T05:08:35;31.70;51.60
48648;DHT22;34437;-33.956;151.076;2022-12-24T05:10:58;31.80;51.40
48648;DHT22;34437;-33.956;151.076;2022-12-24T05:13:20;31.80;51.30
48648;DHT22;34437;-33.956;151.076;2022-12-24T05:15:44;31.90;51.20
48648;DHT22;34437;-33.956;151.076;2022-12-24T05:18:06;31.90;51.10
48648;DHT22;34437;-33.956;151.076;2022-12-24T05:20:28;32.00;51.00
48648;DHT22;34437;-33.956;151.076;2022-12-24T05:22:51;32.00;50.90
48648;DHT22;34437;-33.956;151.076;2022-12-24T05:25:36;32.10;51.40
48648;DHT22;34437;-33.956;151.076;2022-12-24T05:28:18;32.20;50.70
48648;DHT22;34437;-33.956;151.076;2022-12-24T05:30:40;32.20;50.60
48648;DHT22;34437;-33.956;151.076;2022-12-24T05:33:03;32.30;50.50
48648;DHT22;34437;-33.956;151.076;2022-12-24T05:35:25;32.30;50.40
48648;DHT22;34437;-33.956;151.076;2022-12-24T05:37:48;32.40;50.30
48648;DHT22;34437;-33.956;151.076;2022-12-24T05:40:10;32.40;50.10
48648;DHT22;34437;-33.956;151.076;2022-12-24T05:42:33;32.50;50.10
48648;DHT22;34437;-33.956;151.076;2022-12-24T05:44:55;32.60;50.10
48648;DHT22;34437;-33.956;151.076;2022-12-24T05:47:18;32.60;50.00
48648;DHT22;34437;-33.956;151.076;2022-12-24T05:49:40;32.60;49.70
48648;DHT22;34437;-33.956;151.076;2022-12-24T05:52:02;32.70;49.70
48648;DHT22;34437;-33.956;151.076;2022-12-24T05:54:25;32.80;49.60
48648;DHT22;34437;-33.956;151.076;2022-12-24T05:56:47;32.80;49.50
48648;DHT22;34437;-33.956;151.076;2022-12-24T05:59:10;32.80;49.40
48648;DHT22;34437;-33.956;151.076;2022-12-24T06:01:32;32.90;49.40
48648;DHT22;34437;-33.956;151.076;2022-12-24T06:03:55;32.90;49.40
48648;DHT22;34437;-33.956;151.076;2022-12-24T06:06:24;32.90;49.30
48648;DHT22;34437;-33.956;151.076;2022-12-24T06:08:47;33.00;49.40
48648;DHT22;34437;-33.956;151.076;2022-12-24T06:11:12;33.00;49.30
48648;DHT22;34437;-33.956;151.076;2022-12-24T06:13:35;33.10;49.30
48648;DHT22;34437;-33.956;151.076;2022-12-24T06:15:59;33.10;49.30
48648;DHT22;34437;-33.956;151.076;2022-12-24T06:18:22;33.10;49.30
48648;DHT22;34437;-33.956;151.076;2022-12-24T06:20:44;33.10;49.20
48648;DHT22;34437;-33.956;151.076;2022-12-24T06:23:07;33.20;49.10
48648;DHT22;34437;-33.956;151.076;2022-12-24T06:25:29;33.20;49.10
48648;DHT22;34437;-33.956;151.076;2022-12-24T06:27:51;33.30;49.00
48648;DHT22;34437;-33.956;151.076;2022-12-24T06:30:14;33.30;49.00
48648;DHT22;34437;-33.956;151.076;2022-12-24T06:32:36;33.30;48.90
48648;DHT22;34437;-33.956;151.076;2022-12-24T06:34:59;33.40;48.90
48648;DHT22;34437;-33.956;151.076;2022-12-24T06:37:21;33.30;48.80
48648;DHT22;34437;-33.956;151.076;2022-12-24T06:39:45;33.40;48.90
48648;DHT22;34437;-33.956;151.076;2022-12-24T06:42:07;33.30;48.80
48648;DHT22;34437;-33.956;151.076;2022-12-24T06:44:29;33.30;48.90
48648;DHT22;34437;-33.956;151.076;2022-12-24T06:46:52;33.40;48.90
48648;DHT22;34437;-33.956;151.076;2022-12-24T06:49:14;33.30;48.80
48648;DHT22;34437;-33.956;151.076;2022-12-24T06:51:37;33.40;48.80
48648;DHT22;34437;-33.956;151.076;2022-12-24T06:53:59;33.40;48.70
48648;DHT22;34437;-33.956;151.076;2022-12-24T06:56:22;33.50;48.60
48648;DHT22;34437;-33.956;151.076;2022-12-24T06:58:44;33.50;48.50
48648;DHT22;34437;-33.956;151.076;2022-12-24T07:01:10;33.50;48.50
48648;DHT22;34437;-33.956;151.076;2022-12-24T07:03:33;33.60;48.50
48648;DHT22;34437;-33.956;151.076;2022-12-24T07:05:55;33.60;48.30
48648;DHT22;34437;-33.956;151.076;2022-12-24T07:08:18;33.60;48.40
48648;DHT22;34437;-33.956;151.076;2022-12-24T07:10:40;33.60;48.40
48648;DHT22;34437;-33.956;151.076;2022-12-24T07:13:03;33.50;48.40
48648;DHT22;34437;-33.956;151.076;2022-12-24T07:15:25;33.50;48.40
48648;DHT22;34437;-33.956;151.076;2022-12-24T07:17:48;33.50;48.50
48648;DHT22;34437;-33.956;151.076;2022-12-24T07:20:12;33.50;48.50
48648;DHT22;34437;-33.956;151.076;2022-12-24T07:22:35;33.50;48.50
48648;DHT22;34437;-33.956;151.076;2022-12-24T07:24:58;33.50;48.50
48648;DHT22;34437;-33.956;151.076;2022-12-24T07:27:20;33.50;48.60
48648;DHT22;34437;-33.956;151.076;2022-12-24T07:29:43;33.50;48.60
48648;DHT22;34437;-33.956;151.076;2022-12-24T07:32:05;33.40;48.50
48648;DHT22;34437;-33.956;151.076;2022-12-24T07:34:28;33.40;48.50
48648;DHT22;34437;-33.956;151.076;2022-12-24T07:36:50;33.40;48.60
48648;DHT22;34437;-33.956;151.076;2022-12-24T07:39:12;33.40;48.60
48648;DHT22;34437;-33.956;151.076;2022-12-24T07:41:35;33.30;48.60
48648;DHT22;34437;-33.956;151.076;2022-12-24T07:43:57;33.20;48.60
48648;DHT22;34437;-33.956;151.076;2022-12-24T07:46:20;33.20;48.70
48648;DHT22;34437;-33.956;151.076;2022-12-24T07:48:42;33.10;48.30
48648;DHT22;34437;-33.956;151.076;2022-12-24T07:51:05;33.00;48.30
48648;DHT22;34437;-33.956;151.076;2022-12-24T07:53:28;32.90;48.30
48648;DHT22;34437;-33.956;151.076;2022-12-24T07:55:50;32.90;48.50
48648;DHT22;34437;-33.956;151.076;2022-12-24T07:58:13;32.80;48.40
48648;DHT22;34437;-33.956;151.076;2022-12-24T08:00:35;32.80;48.50
48648;DHT22;34437;-33.956;151.076;2022-12-24T08:02:58;32.80;48.50
48648;DHT22;34437;-33.956;151.076;2022-12-24T08:05:21;32.80;48.50
48648;DHT22;34437;-33.956;151.076;2022-12-24T08:07:44;32.80;48.60
48648;DHT22;34437;-33.956;151.076;2022-12-24T08:10:06;32.70;48.40
48648;DHT22;34437;-33.956;151.076;2022-12-24T08:12:29;32.70;48.40
48648;DHT22;34437;-33.956;151.076;2022-12-24T08:14:51;32.60;48.40
48648;DHT22;34437;-33.956;151.076;2022-12-24T08:17:14;32.70;48.40
48648;DHT22;34437;-33.956;151.076;2022-12-24T08:19:36;32.80;48.60
48648;DHT22;34437;-33.956;151.076;2022-12-24T08:21:59;32.70;48.60
48648;DHT22;34437;-33.956;151.076;2022-12-24T08:24:21;32.70;48.60
48648;DHT22;34437;-33.956;151.076;2022-12-24T08:26:44;32.70;48.40
48648;DHT22;34437;-33.956;151.076;2022-12-24T08:29:06;32.70;48.40
48648;DHT22;34437;-33.956;151.076;2022-12-24T08:31:29;32.70;48.20
48648;DHT22;34437;-33.956;151.076;2022-12-24T08:33:56;32.60;47.90
48648;DHT22;34437;-33.956;151.076;2022-12-24T08:36:19;32.60;47.70
48648;DHT22;34437;-33.956;151.076;2022-12-24T08:38:41;32.60;47.70
48648;DHT22;34437;-33.956;151.076;2022-12-24T08:41:04;32.60;47.70
48648;DHT22;34437;-33.956;151.076;2022-12-24T08:43:26;32.60;47.40
48648;DHT22;34437;-33.956;151.076;2022-12-24T08:45:49;32.60;47.60
48648;DHT22;34437;-33.956;151.076;2022-12-24T08:48:12;32.50;47.60
48648;DHT22;34437;-33.956;151.076;2022-12-24T08:50:34;32.50;47.80
48648;DHT22;34437;-33.956;151.076;2022-12-24T08:52:57;32.50;47.90
48648;DHT22;34437;-33.956;151.076;2022-12-24T08:55:20;32.50;47.90
48648;DHT22;34437;-33.956;151.076;2022-12-24T08:57:43;32.50;48.10
48648;DHT22;34437;-33.956;151.076;2022-12-24T09:00:06;32.50;48.20
48648;DHT22;34437;-33.956;151.076;2022-12-24T09:02:32;32.40;48.20
48648;DHT22;34437;-33.956;151.076;2022-12-24T09:04:55;32.40;48.20
48648;DHT22;34437;-33.956;151.076;2022-12-24T09:07:17;32.40;48.30
48648;DHT22;34437;-33.956;151.076;2022-12-24T09:09:40;32.30;48.10
48648;DHT22;34437;-33.956;151.076;2022-12-24T09:12:04;32.30;48.40
48648;DHT22;34437;-33.956;151.076;2022-12-24T09:14:27;32.30;48.30
48648;DHT22;34437;-33.956;151.076;2022-12-24T09:16:49;32.30;48.50
48648;DHT22;34437;-33.956;151.076;2022-12-24T09:19:11;32.30;48.50
48648;DHT22;34437;-33.956;151.076;2022-12-24T09:21:34;32.30;48.80
48648;DHT22;34437;-33.956;151.076;2022-12-24T09:23:56;32.20;49.40
48648;DHT22;34437;-33.956;151.076;2022-12-24T09:26:25;32.20;49.00
48648;DHT22;34437;-33.956;151.076;2022-12-24T09:28:48;32.20;49.50
48648;DHT22;34437;-33.956;151.076;2022-12-24T09:31:12;32.20;49.10
48648;DHT22;34437;-33.956;151.076;2022-12-24T09:33:36;32.10;49.10
48648;DHT22;34437;-33.956;151.076;2022-12-24T09:35:59;32.10;49.20
48648;DHT22;34437;-33.956;151.076;2022-12-24T09:38:22;32.10;49.30
48648;DHT22;34437;-33.956;151.076;2022-12-24T09:40:45;32.10;49.50
48648;DHT22;34437;-33.956;151.076;2022-12-24T09:43:19;32.10;49.50
48648;DHT22;34437;-33.956;151.076;2022-12-24T09:48:17;32.00;49.60
48648;DHT22;34437;-33.956;151.076;2022-12-24T09:50:51;32.00;49.80
48648;DHT22;34437;-33.956;151.076;2022-12-24T09:56:46;32.00;50.00
48648;DHT22;34437;-33.956;151.076;2022-12-24T09:59:23;32.00;50.20
48648;DHT22;34437;-33.956;151.076;2022-12-24T10:01:48;31.90;50.20
48648;DHT22;34437;-33.956;151.076;2022-12-24T10:04:16;31.90;50.70
48648;DHT22;34437;-33.956;151.076;2022-12-24T10:12:38;31.90;50.40
48648;DHT22;34437;-33.956;151.076;2022-12-24T10:15:23;31.90;50.50
48648;DHT22;34437;-33.956;151.076;2022-12-24T10:17:59;31.90;50.50
48648;DHT22;34437;-33.956;151.076;2022-12-24T10:23:10;31.80;50.70
48648;DHT22;34437;-33.956;151.076;2022-12-24T10:28:13;31.80;50.80
48648;DHT22;34437;-33.956;151.076;2022-12-24T10:30:36;31.80;50.80
48648;DHT22;34437;-33.956;151.076;2022-12-24T10:32:58;31.80;50.90
48648;DHT22;34437;-33.956;151.076;2022-12-24T10:35:28;31.70;50.90
48648;DHT22;34437;-33.956;151.076;2022-12-24T10:37:51;31.70;50.90
48648;DHT22;34437;-33.956;151.076;2022-12-24T10:42:51;31.70;51.00
48648;DHT22;34437;-33.956;151.076;2022-12-24T10:45:18;31.70;51.10
48648;DHT22;34437;-33.956;151.076;2022-12-24T10:47:43;31.70;51.10
48648;DHT22;34437;-33.956;151.076;2022-12-24T10:52:55;31.70;51.30
48648;DHT22;34437;-33.956;151.076;2022-12-24T10:55:23;31.70;51.20
48648;DHT22;34437;-33.956;151.076;2022-12-24T10:57:55;31.70;51.90
48648;DHT22;34437;-33.956;151.076;2022-12-24T11:00:19;31.70;51.30
48648;DHT22;34437;-33.956;151.076;2022-12-24T11:02:42;31.60;51.40
48648;DHT22;34437;-33.956;151.076;2022-12-24T11:05:29;31.60;51.40
48648;DHT22;34437;-33.956;151.076;2022-12-24T11:08:03;31.60;51.50
48648;DHT22;34437;-33.956;151.076;2022-12-24T11:10:25;31.50;51.80
48648;DHT22;34437;-33.956;151.076;2022-12-24T11:12:49;31.40;52.00
48648;DHT22;34437;-33.956;151.076;2022-12-24T11:15:32;31.40;52.30
48648;DHT22;34437;-33.956;151.076;2022-12-24T11:18:02;31.40;52.50
48648;DHT22;34437;-33.956;151.076;2022-12-24T11:20:29;31.30;52.50
48648;DHT22;34437;-33.956;151.076;2022-12-24T11:22:52;31.30;52.70
48648;DHT22;34437;-33.956;151.076;2022-12-24T11:25:29;31.30;52.80
48648;DHT22;34437;-33.956;151.076;2022-12-24T11:27:55;31.30;52.90
48648;DHT22;34437;-33.956;151.076;2022-12-24T11:30:30;31.20;52.90
48648;DHT22;34437;-33.956;151.076;2022-12-24T11:35:25;31.20;53.00
48648;DHT22;34437;-33.956;151.076;2022-12-24T11:38:10;31.20;53.00
48648;DHT22;34437;-33.956;151.076;2022-12-24T11:40:40;31.20;53.10
48648;DHT22;34437;-33.956;151.076;2022-12-24T11:43:04;31.20;53.10
48648;DHT22;34437;-33.956;151.076;2022-12-24T11:45:28;31.10;53.20
48648;DHT22;34437;-33.956;151.076;2022-12-24T11:47:52;31.10;53.30
48648;DHT22;34437;-33.956;151.076;2022-12-24T11:50:35;31.10;53.40
48648;DHT22;34437;-33.956;151.076;2022-12-24T11:55:52;31.10;53.80
48648;DHT22;34437;-33.956;151.076;2022-12-24T11:58:42;31.10;53.80
48648;DHT22;34437;-33.956;151.076;2022-12-24T12:01:29;31.00;53.90
48648;DHT22;34437;-33.956;151.076;2022-12-24T12:03:59;31.00;54.10
48648;DHT22;34437;-33.956;151.076;2022-12-24T12:08:58;31.00;54.30
48648;DHT22;34437;-33.956;151.076;2022-12-24T12:11:24;31.00;54.40
48648;DHT22;34437;-33.956;151.076;2022-12-24T12:13:47;30.90;54.50
48648;DHT22;34437;-33.956;151.076;2022-12-24T12:16:22;30.90;54.60
48648;DHT22;34437;-33.956;151.076;2022-12-24T12:18:56;30.90;54.70
48648;DHT22;34437;-33.956;151.076;2022-12-24T12:21:24;30.90;54.90
48648;DHT22;34437;-33.956;151.076;2022-12-24T12:24:32;30.90;55.00
48648;DHT22;34437;-33.956;151.076;2022-12-24T12:27:38;30.80;54.80
48648;DHT22;34437;-33.956;151.076;2022-12-24T12:30:09;30.80;54.90
48648;DHT22;34437;-33.956;151.076;2022-12-24T12:32:56;30.80;54.90
48648;DHT22;34437;-33.956;151.076;2022-12-24T12:35:40;30.80;55.00
48648;DHT22;34437;-33.956;151.076;2022-12-24T12:38:10;30.80;55.10
48648;DHT22;34437;-33.956;151.076;2022-12-24T12:46:11;30.70;55.40
48648;DHT22;34437;-33.956;151.076;2022-12-24T12:48:52;30.60;55.50
48648;DHT22;34437;-33.956;151.076;2022-12-24T12:51:38;30.60;55.40
48648;DHT22;34437;-33.956;151.076;2022-12-24T12:54:18;30.60;55.50
48648;DHT22;34437;-33.956;151.076;2022-12-24T12:56:47;30.60;55.50
48648;DHT22;34437;-33.956;151.076;2022-12-24T12:59:24;30.50;55.60
48648;DHT22;34437;-33.956;151.076;2022-12-24T13:02:44;30.50;55.40
48648;DHT22;34437;-33.956;151.076;2022-12-24T13:10:08;30.50;55.40
48648;DHT22;34437;-33.956;151.076;2022-12-24T13:12:39;30.50;55.40
48648;DHT22;34437;-33.956;151.076;2022-12-24T13:18:07;30.40;55.40
48648;DHT22;34437;-33.956;151.076;2022-12-24T13:20:36;30.40;55.40
48648;DHT22;34437;-33.956;151.076;2022-12-24T13:25:43;30.40;55.40
48648;DHT22;34437;-33.956;151.076;2022-12-24T13:30:43;30.30;55.30
48648;DHT22;34437;-33.956;151.076;2022-12-24T13:36:13;30.20;55.30
48648;DHT22;34437;-33.956;151.076;2022-12-24T13:38:50;30.20;55.20
48648;DHT22;34437;-33.956;151.076;2022-12-24T13:47:15;30.10;55.20
48648;DHT22;34437;-33.956;151.076;2022-12-24T13:49:50;30.10;55.20
48648;DHT22;34437;-33.956;151.076;2022-12-24T13:52:17;30.10;55.30
48648;DHT22;34437;-33.956;151.076;2022-12-24T14:02:38;30.00;55.20
48648;DHT22;34437;-33.956;151.076;2022-12-24T14:05:15;29.90;55.20
48648;DHT22;34437;-33.956;151.076;2022-12-24T14:07:47;29.80;55.20
48648;DHT22;34437;-33.956;151.076;2022-12-24T14:10:27;29.80;55.20
48648;DHT22;34437;-33.956;151.076;2022-12-24T14:12:52;29.80;55.40
48648;DHT22;34437;-33.956;151.076;2022-12-24T14:18:15;29.70;55.30
48648;DHT22;34437;-33.956;151.076;2022-12-24T14:20:38;29.60;55.40
48648;DHT22;34437;-33.956;151.076;2022-12-24T14:23:03;29.70;55.40
48648;DHT22;34437;-33.956;151.076;2022-12-24T14:25:27;29.60;55.30
48648;DHT22;34437;-33.956;151.076;2022-12-24T14:27:58;29.60;55.50
48648;DHT22;34437;-33.956;151.076;2022-12-24T14:30:27;29.50;55.40
48648;DHT22;34437;-33.956;151.076;2022-12-24T14:32:51;29.50;55.40
48648;DHT22;34437;-33.956;151.076;2022-12-24T14:37:59;29.40;55.10
48648;DHT22;34437;-33.956;151.076;2022-12-24T14:40:30;29.40;55.60
48648;DHT22;34437;-33.956;151.076;2022-12-24T14:51:11;29.20;55.70
48648;DHT22;34437;-33.956;151.076;2022-12-24T14:55:57;29.20;55.80
48648;DHT22;34437;-33.956;151.076;2022-12-24T14:58:36;29.10;55.80
48648;DHT22;34437;-33.956;151.076;2022-12-24T15:01:15;29.20;55.90
48648;DHT22;34437;-33.956;151.076;2022-12-24T15:03:38;29.10;55.80
48648;DHT22;34437;-33.956;151.076;2022-12-24T15:06:07;29.10;55.80
48648;DHT22;34437;-33.956;151.076;2022-12-24T15:08:47;29.00;55.90
48648;DHT22;34437;-33.956;151.076;2022-12-24T15:11:16;28.90;55.90
48648;DHT22;34437;-33.956;151.076;2022-12-24T15:13:45;28.90;55.90
48648;DHT22;34437;-33.956;151.076;2022-12-24T15:16:12;28.90;56.00
48648;DHT22;34437;-33.956;151.076;2022-12-24T15:18:38;28.90;56.10
48648;DHT22;34437;-33.956;151.076;2022-12-24T15:21:05;28.80;56.00
48648;DHT22;34437;-33.956;151.076;2022-12-24T15:23:34;28.80;56.00
48648;DHT22;34437;-33.956;151.076;2022-12-24T15:26:25;28.80;56.10
48648;DHT22;34437;-33.956;151.076;2022-12-24T15:28:48;28.80;56.10
48648;DHT22;34437;-33.956;151.076;2022-12-24T15:31:13;28.70;56.00
48648;DHT22;34437;-33.956;151.076;2022-12-24T15:33:37;28.70;56.00
48648;DHT22;34437;-33.956;151.076;2022-12-24T15:35:59;28.70;55.60
48648;DHT22;34437;-33.956;151.076;2022-12-24T15:38:32;28.70;56.20
48648;DHT22;34437;-33.956;151.076;2022-12-24T15:40:56;28.60;56.20
48648;DHT22;34437;-33.956;151.076;2022-12-24T15:43:19;28.50;56.20
48648;DHT22;34437;-33.956;151.076;2022-12-24T15:45:44;28.50;56.30
48648;DHT22;34437;-33.956;151.076;2022-12-24T15:48:10;28.50;56.30
48648;DHT22;34437;-33.956;151.076;2022-12-24T15:50:44;28.50;56.30
48648;DHT22;34437;-33.956;151.076;2022-12-24T15:53:35;28.50;56.30
48648;DHT22;34437;-33.956;151.076;2022-12-24T15:56:02;28.40;56.30
48648;DHT22;34437;-33.956;151.076;2022-12-24T15:58:30;28.40;56.40
48648;DHT22;34437;-33.956;151.076;2022-12-24T16:01:26;28.40;56.40
48648;DHT22;34437;-33.956;151.076;2022-12-24T16:06:12;28.30;56.40
48648;DHT22;34437;-33.956;151.076;2022-12-24T16:08:41;28.30;56.50
48648;DHT22;34437;-33.956;151.076;2022-12-24T16:13:54;28.30;56.50
48648;DHT22;34437;-33.956;151.076;2022-12-24T16:16:18;28.30;56.60
48648;DHT22;34437;-33.956;151.076;2022-12-24T16:18:58;28.20;56.60
48648;DHT22;34437;-33.956;151.076;2022-12-24T16:21:29;28.20;56.70
48648;DHT22;34437;-33.956;151.076;2022-12-24T16:23:53;28.20;56.70
48648;DHT22;34437;-33.956;151.076;2022-12-24T16:26:16;28.10;56.80
48648;DHT22;34437;-33.956;151.076;2022-12-24T16:28:39;28.10;56.90
48648;DHT22;34437;-33.956;151.076;2022-12-24T16:31:01;28.00;56.90
48648;DHT22;34437;-33.956;151.076;2022-12-24T16:33:24;28.00;56.90
48648;DHT22;34437;-33.956;151.076;2022-12-24T16:35:46;28.00;56.90
48648;DHT22;34437;-33.956;151.076;2022-12-24T16:38:09;28.00;56.90
48648;DHT22;34437;-33.956;151.076;2022-12-24T16:40:34;28.00;56.90